Aviation Digital Data Service (ADDS)

Output produced by METARs form (2353 UTC 23 November 2014)
found at http://aviationweather.gov/adds/metars/
 
KARA 232327Z 20008KT 10SM OVC014 21/18 A2963 RMK AO2 T02060178